Leesburg International Airport
KLEE : now visible

Airfield :











YOU CAN JOIN US ON...

 
LOGIN :

Register | Disclaimer

   EN    FR    IT 

 









Legend :    VFR   Marginal VFR   IFR   Intensive IFR   Very Intensive IFR
Visi :
Ceiling :
>= 8 km
>= 3000ft
5 to 8 km
1000 to 3000 ft
1500m to 5 km
500 to 1000 ft
800 to 1500m
200 to 500 ft
< 800m
< 200 ft
Symbols :   Thunderstorms  Fog  Heavy snow  Heavy precipitations  Wind > 20 kt






- Airport Elevation : 76 ft


KLEE - Leesburg International

CURRENT METAR :
  • 061553Z 26004KT 10SM CLR 20/11 A3023 RMK AO2 SLP234 T02000106

EXPIRED METARs :
  • 061453Z 07003KT 10SM CLR 19/08 A3023 RMK AO2 SLP234 T01890083 50012
  • 061353Z 00000KT 10SM CLR 14/09 A3023 RMK AO2 SLP234 T01440089

TAF KLEE
Valid from the 06 at 12:00 until the 07 at 12:00 UTC


061128Z 0612/0712 VRB02KT P6SM BKN250
FM061600 18005KT P6SM FEW040 SCT250
FM062100 24005KT P6SM SCT040 BKN250
FM070000 VRB04KT P6SM SCT250



MET'MAP, your aeronautical weather chart ! - Copyright ORBIFLY December 2007 - Disclaimer

ORBIFLY MET'MAP TEAM :

Programming & Development : Alexandra Zaïnal
Concept & original design : Baudouin d'Aumeries
Assistance for programming : Marc-Olivier Méhu
Technical & hardware support : Manuel Goepfert

Contact : metmap@orbifly.com




SOURCES & CREDITS :

   NOAA       Earth
Advisory